createdAt,value
2023-04-09T00:01:12.168Z,4.90
2023-04-09T00:03:41.198Z,5.00
2023-04-09T00:06:08.485Z,5.10
2023-04-09T00:08:36.076Z,5.20
2023-04-09T00:11:03.398Z,5.30
2023-04-09T00:16:00.670Z,5.50
2023-04-09T00:18:27.745Z,5.70
2023-04-09T00:20:54.881Z,5.70
2023-04-09T00:23:21.992Z,5.80
2023-04-09T00:25:49.106Z,5.90
2023-04-09T00:28:16.848Z,6.00
2023-04-09T00:30:44.078Z,6.10
2023-04-09T00:33:11.309Z,6.10
2023-04-09T00:35:38.472Z,6.20
2023-04-09T00:38:05.645Z,6.30
2023-04-09T00:40:32.818Z,6.30
2023-04-09T00:42:59.980Z,6.30
2023-04-09T00:45:27.216Z,6.30
2023-04-09T00:47:54.411Z,6.40
2023-04-09T00:50:22.021Z,6.30
2023-04-09T00:52:51.525Z,6.30
2023-04-09T00:55:21.943Z,6.30
2023-04-09T00:57:49.056Z,6.30
2023-04-09T01:00:16.671Z,6.20
2023-04-09T01:02:44.619Z,6.10
2023-04-09T01:05:13.360Z,6.00
2023-04-09T01:08:13.288Z,6.00
2023-04-09T01:11:09.228Z,5.80
2023-04-09T01:13:49.798Z,5.70
2023-04-09T01:16:19.587Z,5.50
2023-04-09T01:19:32.879Z,5.40
2023-04-09T01:22:02.045Z,5.20
2023-04-09T01:24:47.426Z,5.10
2023-04-09T01:27:15.721Z,4.90
2023-04-09T01:29:47.815Z,4.80
2023-04-09T01:32:17.566Z,4.60
2023-04-09T01:34:48.033Z,4.50
2023-04-09T01:37:16.435Z,4.30
2023-04-09T01:39:44.169Z,4.30
2023-04-09T01:42:12.715Z,4.20
2023-04-09T01:44:41.659Z,4.10
2023-04-09T01:47:10.238Z,4.00
2023-04-09T01:49:39.022Z,3.90
2023-04-09T01:52:07.040Z,3.80
2023-04-09T01:54:34.255Z,3.70
2023-04-09T01:57:01.303Z,3.60
2023-04-09T01:59:28.421Z,3.60
2023-04-09T02:02:01.961Z,3.50
2023-04-09T02:04:37.614Z,3.50
2023-04-09T02:07:15.857Z,3.50
2023-04-09T02:09:46.539Z,3.50
2023-04-09T02:12:18.322Z,3.40
2023-04-09T02:14:52.353Z,3.40
2023-04-09T02:17:21.384Z,3.40
2023-04-09T02:19:48.753Z,3.30
2023-04-09T02:22:17.274Z,3.30
2023-04-09T02:24:46.008Z,3.20
2023-04-09T02:27:13.110Z,3.20
2023-04-09T02:29:40.883Z,3.10
2023-04-09T02:32:08.296Z,3.00
2023-04-09T02:34:35.679Z,2.80
2023-04-09T02:37:02.900Z,2.70
2023-04-09T02:39:30.017Z,2.70
2023-04-09T02:41:57.986Z,2.60
2023-04-09T02:44:25.427Z,2.60
2023-04-09T02:46:53.005Z,2.60
2023-04-09T02:49:20.459Z,2.60
2023-04-09T02:51:47.664Z,2.50
2023-04-09T02:54:14.786Z,2.40
2023-04-09T02:56:41.861Z,2.40
2023-04-09T02:59:08.912Z,2.30
2023-04-09T03:01:36.618Z,2.30
2023-04-09T03:04:03.880Z,2.30
2023-04-09T03:06:31.234Z,2.30
2023-04-09T03:08:58.474Z,2.20
2023-04-09T03:11:25.593Z,2.20
2023-04-09T03:13:52.663Z,2.20
2023-04-09T03:16:20.581Z,2.10
2023-04-09T03:18:47.808Z,2.10
2023-04-09T03:21:15.155Z,2.00
2023-04-09T03:23:42.389Z,2.00
2023-04-09T03:26:09.499Z,2.00
2023-04-09T03:28:36.563Z,2.00
2023-04-09T03:31:03.723Z,2.10
2023-04-09T03:33:30.920Z,2.00
2023-04-09T03:35:58.047Z,2.10
2023-04-09T03:38:25.229Z,2.00
2023-04-09T03:40:52.320Z,2.00
2023-04-09T03:43:21.450Z,2.00
2023-04-09T03:45:48.578Z,2.00
2023-04-09T03:48:15.663Z,2.00
2023-04-09T03:50:43.024Z,2.00
2023-04-09T03:53:10.387Z,2.10
2023-04-09T03:55:38.304Z,2.20
2023-04-09T03:58:05.561Z,2.20
2023-04-09T04:00:32.723Z,2.20
2023-04-09T04:03:00.020Z,2.30
2023-04-09T04:05:27.451Z,2.40
2023-04-09T04:07:55.122Z,2.50
2023-04-09T04:10:22.209Z,2.50
2023-04-09T04:12:51.630Z,2.50
2023-04-09T04:15:21.312Z,2.50
2023-04-09T04:17:48.417Z,2.50
2023-04-09T04:20:15.790Z,2.40
2023-04-09T04:22:42.997Z,2.30
2023-04-09T04:25:11.796Z,2.20
2023-04-09T04:27:42.776Z,2.20
2023-04-09T04:30:10.343Z,2.10
2023-04-09T04:32:37.422Z,2.00
2023-04-09T04:35:05.055Z,1.90
2023-04-09T04:37:32.205Z,1.90
2023-04-09T04:40:02.344Z,1.70
2023-04-09T04:42:29.544Z,1.80
2023-04-09T04:44:56.625Z,1.70
2023-04-09T04:47:23.728Z,1.60
2023-04-09T04:49:50.866Z,1.50
2023-04-09T04:52:18.050Z,1.40
2023-04-09T04:54:45.375Z,1.40
2023-04-09T04:57:12.477Z,1.40
2023-04-09T04:59:40.713Z,1.40
2023-04-09T05:02:08.435Z,1.50
2023-04-09T05:04:35.716Z,1.50
2023-04-09T05:07:02.903Z,1.50
2023-04-09T05:09:30.050Z,1.50
2023-04-09T05:11:57.322Z,1.60
2023-04-09T05:14:25.287Z,1.70
2023-04-09T05:16:52.643Z,1.70
2023-04-09T05:19:19.847Z,1.80
2023-04-09T05:21:47.509Z,1.90
2023-04-09T05:24:14.769Z,1.90
2023-04-09T05:26:41.850Z,2.00
2023-04-09T05:29:08.969Z,2.20
2023-04-09T05:31:36.278Z,2.30
2023-04-09T05:34:03.461Z,2.30
2023-04-09T05:36:30.560Z,2.40
2023-04-09T05:38:57.699Z,2.50
2023-04-09T05:41:24.892Z,2.60
2023-04-09T05:43:52.151Z,2.70
2023-04-09T05:46:19.272Z,2.80
2023-04-09T05:48:46.917Z,3.00
2023-04-09T05:51:15.618Z,3.20
2023-04-09T05:53:44.795Z,3.30
2023-04-09T05:56:16.169Z,3.40
2023-04-09T05:58:43.784Z,3.50
2023-04-09T06:01:11.420Z,3.70
2023-04-09T06:03:38.664Z,3.80
2023-04-09T06:06:06.025Z,3.90
2023-04-09T06:08:33.253Z,4.10
2023-04-09T06:11:00.559Z,4.20
2023-04-09T06:13:27.797Z,4.30
2023-04-09T06:15:55.111Z,4.40
2023-04-09T06:18:22.329Z,4.60
2023-04-09T06:20:49.387Z,4.70
2023-04-09T06:23:16.540Z,4.90
2023-04-09T06:25:43.647Z,5.10
2023-04-09T06:28:10.843Z,5.20
2023-04-09T06:30:38.075Z,5.40
2023-04-09T06:33:05.417Z,5.60
2023-04-09T06:35:32.672Z,5.60
2023-04-09T06:37:59.849Z,5.70
2023-04-09T06:40:27.930Z,5.80
2023-04-09T06:42:55.144Z,5.90
2023-04-09T06:45:22.440Z,6.10
2023-04-09T06:47:50.066Z,6.20
2023-04-09T06:50:17.273Z,6.40
2023-04-09T06:52:44.328Z,6.60
2023-04-09T06:55:11.689Z,7.00
2023-04-09T06:57:39.348Z,7.10
2023-04-09T07:00:08.085Z,7.20
2023-04-09T07:02:35.899Z,7.30
2023-04-09T07:05:04.442Z,7.40
2023-04-09T07:07:31.810Z,7.40
2023-04-09T07:09:59.012Z,7.40
2023-04-09T07:12:35.149Z,7.50
2023-04-09T07:15:05.909Z,7.70
2023-04-09T07:17:33.857Z,7.90
2023-04-09T07:20:01.543Z,7.90
2023-04-09T07:22:30.823Z,7.90
2023-04-09T07:24:58.073Z,8.00
2023-04-09T07:27:27.684Z,8.10
2023-04-09T07:30:04.564Z,7.90
2023-04-09T07:32:31.670Z,8.00
2023-04-09T07:34:59.618Z,8.10
2023-04-09T07:37:27.270Z,8.40
2023-04-09T07:39:54.412Z,8.70
2023-04-09T07:42:21.934Z,9.00
2023-04-09T07:44:49.276Z,9.20
2023-04-09T07:47:16.340Z,9.40
2023-04-09T07:49:43.625Z,9.50
2023-04-09T07:52:10.962Z,9.50
2023-04-09T07:54:38.054Z,9.60
2023-04-09T07:57:05.561Z,9.60
2023-04-09T07:59:33.971Z,9.80
2023-04-09T08:02:01.212Z,9.90
2023-04-09T08:04:29.025Z,10.00
2023-04-09T08:06:56.361Z,10.20
2023-04-09T08:09:23.532Z,10.40
2023-04-09T08:11:52.025Z,10.50
2023-04-09T08:14:21.501Z,10.80
2023-04-09T08:16:50.414Z,10.80
2023-04-09T08:19:21.623Z,10.80
2023-04-09T08:21:49.669Z,10.70
2023-04-09T08:24:17.350Z,10.80
2023-04-09T08:26:45.034Z,10.80
2023-04-09T08:29:13.741Z,10.90
2023-04-09T08:31:42.260Z,10.90
2023-04-09T08:34:09.494Z,10.80
2023-04-09T08:36:37.171Z,10.70
2023-04-09T08:39:05.588Z,10.70
2023-04-09T08:41:32.867Z,10.80
2023-04-09T08:44:00.868Z,10.90
2023-04-09T08:46:28.620Z,10.90
2023-04-09T08:48:56.335Z,11.00
2023-04-09T08:51:24.601Z,11.10
2023-04-09T08:54:03.627Z,11.20
2023-04-09T08:56:31.482Z,11.30
2023-04-09T08:58:59.875Z,11.40
2023-04-09T09:01:29.745Z,11.40
2023-04-09T09:04:09.223Z,11.60
2023-04-09T09:06:40.028Z,12.10
2023-04-09T09:09:13.014Z,12.50
2023-04-09T09:11:44.578Z,12.70
2023-04-09T09:14:18.498Z,12.80
2023-04-09T09:17:05.664Z,12.80
2023-04-09T09:19:34.163Z,12.60
2023-04-09T09:22:08.151Z,12.40
2023-04-09T09:24:49.812Z,12.50
2023-04-09T09:27:36.476Z,12.70
2023-04-09T09:30:05.912Z,12.70
2023-04-09T09:32:33.855Z,12.60
2023-04-09T09:35:07.234Z,12.70
2023-04-09T09:37:34.760Z,13.00
2023-04-09T09:40:02.102Z,13.00
2023-04-09T09:42:29.237Z,12.90
2023-04-09T09:44:56.646Z,13.00
2023-04-09T09:47:25.382Z,13.30
2023-04-09T09:49:53.095Z,13.40
2023-04-09T09:52:44.142Z,13.20
2023-04-09T09:55:15.673Z,13.20
2023-04-09T09:57:45.788Z,13.50
2023-04-09T10:00:14.731Z,13.80
2023-04-09T10:02:51.851Z,13.60
2023-04-09T10:05:22.690Z,13.30
2023-04-09T10:07:49.848Z,13.20
2023-04-09T10:10:17.365Z,13.10
2023-04-09T10:12:45.514Z,13.40
2023-04-09T10:15:13.084Z,13.40
2023-04-09T10:17:40.552Z,13.30
2023-04-09T10:20:40.215Z,13.40
2023-04-09T10:23:37.737Z,13.60
2023-04-09T10:26:05.949Z,13.90
2023-04-09T10:28:33.407Z,13.80
2023-04-09T10:31:00.888Z,13.60
2023-04-09T10:33:29.236Z,13.40
2023-04-09T10:36:12.849Z,13.30
2023-04-09T10:38:45.495Z,13.30
2023-04-09T10:41:23.555Z,13.20
2023-04-09T10:43:51.027Z,13.20
2023-04-09T10:46:37.044Z,13.40
2023-04-09T10:49:24.516Z,13.50
2023-04-09T10:52:08.006Z,13.90
2023-04-09T10:54:46.145Z,14.00
2023-04-09T10:57:24.547Z,14.10
2023-04-09T10:59:55.999Z,14.20
2023-04-09T11:02:38.370Z,14.10
2023-04-09T11:05:14.596Z,14.20
2023-04-09T11:07:47.504Z,14.10
2023-04-09T11:10:14.605Z,14.00
2023-04-09T11:12:43.078Z,14.10
2023-04-09T11:15:20.725Z,14.10
2023-04-09T11:17:49.481Z,14.10
2023-04-09T11:20:21.352Z,14.20
2023-04-09T11:22:52.041Z,14.40
2023-04-09T11:25:26.611Z,14.60
2023-04-09T11:27:54.491Z,14.70
2023-04-09T11:30:21.882Z,14.50
2023-04-09T11:32:51.875Z,14.50
2023-04-09T11:35:21.796Z,14.50
2023-04-09T11:37:50.827Z,14.40
2023-04-09T11:40:29.326Z,14.40
2023-04-09T11:42:57.375Z,14.60
2023-04-09T11:45:29.424Z,14.80
2023-04-09T11:47:57.331Z,15.10
2023-04-09T11:50:25.072Z,15.30
2023-04-09T11:52:52.658Z,15.50
2023-04-09T11:55:30.108Z,15.40
2023-04-09T11:58:01.741Z,15.40
2023-04-09T12:00:29.614Z,15.50
2023-04-09T12:03:05.852Z,15.30
2023-04-09T12:05:35.227Z,15.20
2023-04-09T12:08:07.427Z,15.40
2023-04-09T12:10:38.835Z,14.60
2023-04-09T12:13:11.100Z,14.30
2023-04-09T12:15:43.388Z,14.00
2023-04-09T12:18:14.762Z,14.10
2023-04-09T12:20:47.524Z,14.10
2023-04-09T12:23:14.855Z,14.20
2023-04-09T12:25:46.489Z,14.20
2023-04-09T12:28:18.491Z,14.30
2023-04-09T12:30:46.797Z,14.20
2023-04-09T12:33:13.951Z,14.20
2023-04-09T12:35:41.151Z,14.30
2023-04-09T12:38:08.273Z,14.50
2023-04-09T12:40:39.060Z,15.10
2023-04-09T12:43:06.392Z,15.20
2023-04-09T12:45:33.768Z,15.20
2023-04-09T12:48:01.072Z,15.50
2023-04-09T12:50:28.771Z,15.90
2023-04-09T12:52:56.031Z,16.50
2023-04-09T12:55:23.230Z,16.70
2023-04-09T12:57:51.012Z,17.10
2023-04-09T13:00:18.308Z,17.20
2023-04-09T13:02:45.805Z,17.20
2023-04-09T13:05:13.094Z,17.50
2023-04-09T13:07:42.726Z,18.10
2023-04-09T13:10:10.680Z,17.80
2023-04-09T13:12:37.800Z,16.90
2023-04-09T13:15:05.815Z,16.30
2023-04-09T13:17:32.963Z,16.20
2023-04-09T13:20:00.076Z,15.80
2023-04-09T13:22:27.345Z,15.60
2023-04-09T13:24:54.448Z,15.80
2023-04-09T13:27:22.257Z,15.70
2023-04-09T13:29:49.437Z,15.70
2023-04-09T13:32:18.395Z,16.00
2023-04-09T13:34:46.159Z,16.60
2023-04-09T13:37:13.269Z,16.90
2023-04-09T13:39:40.508Z,17.60
2023-04-09T13:42:13.709Z,17.50
2023-04-09T13:44:44.871Z,17.60
2023-04-09T13:47:13.727Z,18.60
2023-04-09T13:49:42.153Z,19.50
2023-04-09T13:52:10.768Z,20.30
2023-04-09T13:54:38.006Z,21.40
2023-04-09T13:57:05.276Z,21.60
2023-04-09T13:59:32.352Z,20.10
2023-04-09T14:01:59.698Z,19.10
2023-04-09T14:04:27.020Z,18.30
2023-04-09T14:06:54.133Z,17.90
2023-04-09T14:09:21.261Z,17.30
2023-04-09T14:11:49.490Z,16.90
2023-04-09T14:14:16.776Z,16.30
2023-04-09T14:16:45.230Z,15.90
2023-04-09T14:19:12.263Z,15.70
2023-04-09T14:21:40.446Z,15.20
2023-04-09T14:24:07.898Z,15.00
2023-04-09T14:26:34.991Z,14.90
2023-04-09T14:29:02.222Z,15.50
2023-04-09T14:31:29.444Z,16.00
2023-04-09T14:33:56.888Z,16.00
2023-04-09T14:36:24.686Z,15.70
2023-04-09T14:38:52.566Z,15.50
2023-04-09T14:41:20.828Z,15.60
2023-04-09T14:43:47.979Z,15.70
2023-04-09T14:46:15.161Z,15.80
2023-04-09T14:48:42.205Z,15.90
2023-04-09T14:51:12.404Z,16.30
2023-04-09T14:53:39.533Z,16.20
2023-04-09T14:56:07.369Z,15.70
2023-04-09T14:58:34.458Z,15.60
2023-04-09T15:01:01.632Z,16.10
2023-04-09T15:03:28.983Z,17.10
2023-04-09T15:05:56.861Z,17.90
2023-04-09T15:08:24.076Z,18.70
2023-04-09T15:10:51.379Z,18.90
2023-04-09T15:13:18.608Z,19.10
2023-04-09T15:15:45.835Z,19.10
2023-04-09T15:18:12.957Z,18.90
2023-04-09T15:20:40.794Z,18.70
2023-04-09T15:23:07.876Z,18.60
2023-04-09T15:25:35.075Z,18.50
2023-04-09T15:28:03.338Z,18.60
2023-04-09T15:30:30.838Z,18.70
2023-04-09T15:32:58.200Z,19.00
2023-04-09T15:35:29.255Z,19.10
2023-04-09T15:37:57.396Z,19.20
2023-04-09T15:40:24.923Z,19.10
2023-04-09T15:42:52.181Z,19.10
2023-04-09T15:45:21.767Z,19.10
2023-04-09T15:47:48.929Z,19.20
2023-04-09T15:50:16.158Z,19.60
2023-04-09T15:52:43.294Z,19.50
2023-04-09T15:55:10.886Z,19.30
2023-04-09T15:57:38.764Z,18.80
2023-04-09T16:00:10.735Z,18.70
2023-04-09T16:02:39.000Z,18.40
2023-04-09T16:05:07.314Z,18.50
2023-04-09T16:07:34.934Z,18.30
2023-04-09T16:10:02.702Z,18.10
2023-04-09T16:12:29.849Z,18.10
2023-04-09T16:14:56.977Z,18.20
2023-04-09T16:17:24.197Z,18.60
2023-04-09T16:19:51.288Z,18.40
2023-04-09T16:22:18.380Z,18.50
2023-04-09T16:24:45.697Z,18.40
2023-04-09T16:27:14.512Z,18.20
2023-04-09T16:29:41.628Z,17.80
2023-04-09T16:32:08.760Z,17.10
2023-04-09T16:34:35.993Z,16.60
2023-04-09T16:37:03.247Z,16.50
2023-04-09T16:39:30.495Z,16.30
2023-04-09T16:41:58.429Z,16.00
2023-04-09T16:44:26.040Z,16.00
2023-04-09T16:46:53.191Z,15.60
2023-04-09T16:49:21.415Z,15.00
2023-04-09T16:51:51.950Z,14.50
2023-04-09T16:54:19.453Z,14.10
2023-04-09T16:56:48.544Z,13.80
2023-04-09T16:59:20.167Z,13.60
2023-04-09T17:01:48.635Z,13.40
2023-04-09T17:04:16.323Z,13.30
2023-04-09T17:06:43.661Z,13.40
2023-04-09T17:09:11.483Z,13.40
2023-04-09T17:11:40.477Z,13.40
2023-04-09T17:14:09.037Z,13.20
2023-04-09T17:16:37.168Z,13.00
2023-04-09T17:19:04.315Z,12.80
2023-04-09T17:21:31.460Z,12.50
2023-04-09T17:24:01.963Z,12.20
2023-04-09T17:26:29.715Z,12.00
2023-04-09T17:28:57.250Z,11.80
2023-04-09T17:31:25.109Z,11.60
2023-04-09T17:33:52.625Z,11.40
2023-04-09T17:36:21.345Z,11.20
2023-04-09T17:38:52.116Z,11.00
2023-04-09T17:41:20.994Z,10.70
2023-04-09T17:43:48.189Z,10.50
2023-04-09T17:46:17.026Z,10.30
2023-04-09T17:48:44.716Z,10.20
2023-04-09T17:51:19.004Z,9.90
2023-04-09T17:53:47.462Z,9.60
2023-04-09T17:56:18.531Z,9.40
2023-04-09T17:58:46.562Z,9.30
2023-04-09T18:01:14.034Z,9.10
2023-04-09T18:03:46.358Z,9.00
2023-04-09T18:06:15.432Z,9.00
2023-04-09T18:08:43.487Z,8.90
2023-04-09T18:11:13.145Z,8.90
2023-04-09T18:13:41.034Z,8.80
2023-04-09T18:16:17.264Z,8.70
2023-04-09T18:18:44.590Z,8.60
2023-04-09T18:21:11.672Z,8.50
2023-04-09T18:23:40.495Z,8.30
2023-04-09T18:26:07.941Z,8.10
2023-04-09T18:28:35.695Z,8.00
2023-04-09T18:31:02.936Z,7.90
2023-04-09T18:33:30.039Z,7.70
2023-04-09T18:36:01.743Z,7.50
2023-04-09T18:38:29.974Z,7.40
2023-04-09T18:40:57.736Z,7.30
2023-04-09T18:43:26.084Z,7.10
2023-04-09T18:45:53.890Z,7.00
2023-04-09T18:48:21.205Z,6.90
2023-04-09T18:50:48.279Z,6.70
2023-04-09T18:53:15.501Z,6.60
2023-04-09T18:55:42.597Z,6.40
2023-04-09T18:58:12.915Z,6.40
2023-04-09T19:00:40.223Z,6.30
2023-04-09T19:03:08.226Z,6.20
2023-04-09T19:05:36.289Z,6.20
2023-04-09T19:08:06.887Z,6.10
2023-04-09T19:10:34.180Z,6.10
2023-04-09T19:13:01.629Z,6.10
2023-04-09T19:15:29.649Z,6.00
2023-04-09T19:17:57.489Z,6.00
2023-04-09T19:20:24.689Z,5.90
2023-04-09T19:22:54.638Z,5.90
2023-04-09T19:25:23.381Z,5.90
2023-04-09T19:27:50.683Z,5.90
2023-04-09T19:30:18.030Z,5.90
2023-04-09T19:32:46.377Z,5.80
2023-04-09T19:35:13.524Z,5.70
2023-04-09T19:37:40.994Z,5.60
2023-04-09T19:40:08.983Z,5.60
2023-04-09T19:42:36.256Z,5.60
2023-04-09T19:45:03.565Z,5.60
2023-04-09T19:47:30.932Z,5.50
2023-04-09T19:49:58.038Z,5.40
2023-04-09T19:52:26.049Z,5.30
2023-04-09T19:54:56.515Z,5.20
2023-04-09T19:57:23.865Z,5.10
2023-04-09T19:59:52.392Z,5.10
2023-04-09T20:02:19.846Z,5.00
2023-04-09T20:04:47.230Z,5.00
2023-04-09T20:07:15.570Z,5.00
2023-04-09T20:09:43.692Z,5.00
2023-04-09T20:12:10.976Z,4.90
2023-04-09T20:14:40.751Z,4.90
2023-04-09T20:17:09.870Z,4.90
2023-04-09T20:19:37.988Z,4.80
2023-04-09T20:22:05.492Z,4.80
2023-04-09T20:24:34.009Z,4.80
2023-04-09T20:27:01.612Z,4.80
2023-04-09T20:29:28.864Z,4.80
2023-04-09T20:31:56.088Z,4.80
2023-04-09T20:34:27.041Z,4.70
2023-04-09T20:36:55.000Z,4.70
2023-04-09T20:39:25.101Z,4.60
2023-04-09T20:41:56.799Z,4.60
2023-04-09T20:44:24.572Z,4.60
2023-04-09T20:46:52.028Z,4.50
2023-04-09T20:49:19.264Z,4.50
2023-04-09T20:51:46.572Z,4.40
2023-04-09T20:54:13.670Z,4.40
2023-04-09T20:56:40.897Z,4.40
2023-04-09T20:59:08.353Z,4.40
2023-04-09T21:01:36.276Z,4.50
2023-04-09T21:04:03.907Z,4.40
2023-04-09T21:06:31.252Z,4.40
2023-04-09T21:08:59.789Z,4.40
2023-04-09T21:11:27.257Z,4.40
2023-04-09T21:13:55.539Z,4.30
2023-04-09T21:16:23.308Z,4.30
2023-04-09T21:18:50.885Z,4.30
2023-04-09T21:21:19.503Z,4.20
2023-04-09T21:23:46.609Z,4.20
2023-04-09T21:26:15.155Z,4.20
2023-04-09T21:28:42.267Z,4.10
2023-04-09T21:31:11.401Z,4.10
2023-04-09T21:33:39.413Z,4.10
2023-04-09T21:36:08.027Z,4.10
2023-04-09T21:38:35.870Z,4.00
2023-04-09T21:41:03.009Z,4.00
2023-04-09T21:43:30.394Z,4.00
2023-04-09T21:45:57.946Z,3.90
2023-04-09T21:48:26.540Z,3.90
2023-04-09T21:50:53.879Z,3.90
2023-04-09T21:53:21.254Z,3.80
2023-04-09T21:55:48.322Z,3.80
2023-04-09T21:58:16.006Z,3.80
2023-04-09T22:00:43.116Z,3.80
2023-04-09T22:03:10.585Z,3.80
2023-04-09T22:05:37.856Z,3.80
2023-04-09T22:08:05.023Z,3.80
2023-04-09T22:10:32.195Z,3.80
2023-04-09T22:12:59.292Z,3.80
2023-04-09T22:15:26.419Z,3.80
2023-04-09T22:17:53.599Z,3.80
2023-04-09T22:20:20.842Z,3.90
2023-04-09T22:22:48.399Z,3.90
2023-04-09T22:25:16.819Z,4.00
2023-04-09T22:27:43.962Z,4.00
2023-04-09T22:30:11.322Z,4.10
2023-04-09T22:32:38.513Z,4.10
2023-04-09T22:35:06.430Z,4.10
2023-04-09T22:37:33.505Z,4.00
2023-04-09T22:40:00.961Z,4.00
2023-04-09T22:42:28.114Z,4.00
2023-04-09T22:44:55.384Z,3.90
2023-04-09T22:47:22.567Z,4.00
2023-04-09T22:49:54.898Z,4.00
2023-04-09T22:52:22.500Z,4.00
2023-04-09T22:54:49.561Z,4.00
2023-04-09T22:57:16.674Z,4.00
2023-04-09T22:59:43.788Z,4.00
2023-04-09T23:02:11.135Z,4.00
2023-04-09T23:04:38.341Z,4.00
2023-04-09T23:07:06.291Z,4.00
2023-04-09T23:09:33.392Z,4.00
2023-04-09T23:12:02.332Z,4.00
2023-04-09T23:14:29.441Z,4.00
2023-04-09T23:16:56.556Z,4.00
2023-04-09T23:19:23.857Z,3.90
2023-04-09T23:21:51.077Z,3.90
2023-04-09T23:24:20.371Z,3.80
2023-04-09T23:26:47.433Z,3.80
2023-04-09T23:29:14.518Z,3.80
2023-04-09T23:31:41.606Z,3.70
2023-04-09T23:34:08.679Z,3.70
2023-04-09T23:36:35.796Z,3.80
2023-04-09T23:39:03.184Z,3.80
2023-04-09T23:41:30.601Z,3.90
2023-04-09T23:43:57.750Z,4.00
2023-04-09T23:46:24.818Z,4.00
2023-04-09T23:48:51.903Z,4.00
2023-04-09T23:51:22.232Z,4.00
2023-04-09T23:53:49.546Z,4.00
2023-04-09T23:56:16.836Z,4.00
2023-04-09T23:58:44.032Z,4.10
